Time;durP1;ratioP1;P1;durP2;ratioP2;P2;SDS_P1;SDS_P2;PMS_P1;PMS_P2;Temp;Humidity;BMP_temperature;BMP_pressure;BME280_temperature;BME280_humidity;BME280_pressure;Samples;Min_cycle;Max_cycle;Signal;HPM_P1;HPM_P2
2023/09/02 00:00:46;;;;;;;10.83;9.83;;;;;;;;;;6215800;23;20492;-71
2023/09/02 00:03:13;;;;;;;10.93;10.03;;;;;;;;;;6215524;23;20817;-71
2023/09/02 00:05:40;;;;;;;10.40;9.60;;;;;;;;;;6215794;23;20409;-72
2023/09/02 00:08:07;;;;;;;10.97;9.87;;;;;;;;;;6215774;23;20437;-71
2023/09/02 00:10:34;;;;;;;11.90;10.70;;;;;;;;;;6215751;23;20492;-72
2023/09/02 00:13:01;;;;;;;10.97;9.90;;;;;;;;;;6215590;23;20794;-71
2023/09/02 00:15:28;;;;;;;10.53;9.70;;;;;;;;;;6215749;23;20703;-71
2023/09/02 00:17:56;;;;;;;11.60;10.53;;;;;;;;;;6216043;23;20437;-71
2023/09/02 00:20:23;;;;;;;11.13;10.23;;;;;;;;;;6215468;23;20789;-72
2023/09/02 00:22:50;;;;;;;12.40;9.87;;;;;;;;;;6215458;23;20524;-71
2023/09/02 00:25:16;;;;;;;10.90;10.00;;;;;;;;;;6215976;23;20492;-71
2023/09/02 00:27:43;;;;;;;11.47;10.57;;;;;;;;;;6215639;23;20496;-71
2023/09/02 00:30:11;;;;;;;12.00;10.97;;;;;;;;;;6217072;23;20778;-71
2023/09/02 00:32:37;;;;;;;12.60;11.33;;;;;;;;;;6217349;23;20484;-71
2023/09/02 00:35:06;;;;;;;11.67;10.57;;;;;;;;;;6217463;23;20543;-72
2023/09/02 00:37:33;;;;;;;11.53;10.63;;;;;;;;;;6216862;23;20476;-71
2023/09/02 00:40:00;;;;;;;11.70;10.37;;;;;;;;;;6217383;23;20487;-71
2023/09/02 00:42:29;;;;;;;12.30;11.23;;;;;;;;;;6216871;23;21003;-72
2023/09/02 00:44:56;;;;;;;14.53;11.00;;;;;;;;;;6217135;23;20504;-72
2023/09/02 00:47:23;;;;;;;12.10;11.00;;;;;;;;;;6217318;23;20433;-72
2023/09/02 00:49:49;;;;;;;10.93;9.80;;;;;;;;;;6217351;23;20798;-71
2023/09/02 00:52:20;;;;;;;11.40;10.37;;;;;;;;;;6217054;23;20503;-71
2023/09/02 00:54:47;;;;;;;10.80;9.70;;;;;;;;;;6226998;23;20401;-71
2023/09/02 00:57:14;;;;;;;11.57;10.33;;;;;;;;;;6217274;23;20455;-71
2023/09/02 00:59:41;;;;;;;11.23;10.23;;;;;;;;;;6217148;23;20495;-71
2023/09/02 01:02:09;;;;;;;9.93;9.13;;;;;;;;;;6217069;23;20440;-71
2023/09/02 01:04:36;;;;;;;10.27;9.40;;;;;;;;;;6216843;23;20489;-71
2023/09/02 01:07:04;;;;;;;10.23;9.33;;;;;;;;;;6217120;23;20488;-71
2023/09/02 01:09:32;;;;;;;11.43;10.43;;;;;;;;;;6217105;23;20436;-71
2023/09/02 01:11:59;;;;;;;12.47;11.27;;;;;;;;;;6216688;23;20908;-72
2023/09/02 01:14:26;;;;;;;11.07;10.27;;;;;;;;;;6216988;23;20409;-71
2023/09/02 01:16:53;;;;;;;13.60;11.13;;;;;;;;;;6217048;23;20413;-72
2023/09/02 01:19:20;;;;;;;11.50;10.50;;;;;;;;;;6216961;23;20790;-71
2023/09/02 01:22:00;;;;;;;12.30;11.23;;;;;;;;;;6216931;23;20489;-71
2023/09/02 01:24:39;;;;;;;11.13;10.20;;;;;;;;;;6226343;23;20983;-71
2023/09/02 01:27:13;;;;;;;9.90;9.00;;;;;;;;;;6226821;23;20767;-72
2023/09/02 01:29:44;;;;;;;10.53;9.63;;;;;;;;;;6226752;23;20394;-71
2023/09/02 01:32:13;;;;;;;12.83;11.63;;;;;;;;;;6226708;23;20393;-71
2023/09/02 01:34:41;;;;;;;10.57;9.67;;;;;;;;;;6216641;23;20789;-72
2023/09/02 01:37:09;;;;;;;12.67;9.77;;;;;;;;;;6216874;23;20493;-72
2023/09/02 01:39:37;;;;;;;11.67;10.67;;;;;;;;;;6216646;23;20493;-72
2023/09/02 01:42:05;;;;;;;11.33;10.40;;;;;;;;;;6216735;23;20442;-71
2023/09/02 01:44:33;;;;;;;11.70;10.27;;;;;;;;;;6216481;23;20532;-71
2023/09/02 01:47:01;;;;;;;11.83;10.70;;;;;;;;;;6216686;23;20909;-72
2023/09/02 01:49:28;;;;;;;10.47;9.70;;;;;;;;;;6216676;23;20758;-72
2023/09/02 01:51:56;;;;;;;11.27;10.23;;;;;;;;;;6216761;23;20965;-71
2023/09/02 01:54:23;;;;;;;11.53;10.53;;;;;;;;;;6216023;23;20560;-72
2023/09/02 01:56:50;;;;;;;11.07;10.07;;;;;;;;;;6216584;23;20491;-71
2023/09/02 01:59:17;;;;;;;10.93;10.03;;;;;;;;;;6216686;23;20496;-71
2023/09/02 02:01:45;;;;;;;11.07;9.97;;;;;;;;;;6216892;23;20488;-72
2023/09/02 02:04:15;;;;;;;10.63;9.73;;;;;;;;;;6216271;23;20825;-71
2023/09/02 02:06:43;;;;;;;9.47;8.77;;;;;;;;;;6226490;23;20481;-72
2023/09/02 02:09:13;;;;;;;11.40;10.20;;;;;;;;;;6216088;23;20962;-72
2023/09/02 02:11:40;;;;;;;11.10;9.97;;;;;;;;;;6216444;23;20405;-71
2023/09/02 02:14:07;;;;;;;11.07;10.17;;;;;;;;;;6216373;23;20786;-71
2023/09/02 02:16:35;;;;;;;11.23;10.20;;;;;;;;;;6216096;23;20493;-71
2023/09/02 02:19:03;;;;;;;11.20;10.20;;;;;;;;;;6215999;23;20796;-72
2023/09/02 02:21:31;;;;;;;10.30;9.50;;;;;;;;;;6226020;23;20416;-72
2023/09/02 02:23:58;;;;;;;9.77;8.97;;;;;;;;;;6216132;23;20491;-72
2023/09/02 02:26:25;;;;;;;9.40;8.50;;;;;;;;;;6216341;23;20884;-71
2023/09/02 02:28:51;;;;;;;10.43;9.53;;;;;;;;;;6216379;23;20432;-71
2023/09/02 02:31:18;;;;;;;10.00;8.93;;;;;;;;;;6216365;23;20497;-71
2023/09/02 02:33:45;;;;;;;10.53;9.63;;;;;;;;;;6216228;23;20804;-72
2023/09/02 02:36:13;;;;;;;10.60;9.70;;;;;;;;;;6216214;23;20524;-71
2023/09/02 02:38:40;;;;;;;10.40;9.60;;;;;;;;;;6215775;23;20922;-71
2023/09/02 02:41:07;;;;;;;9.90;9.00;;;;;;;;;;6216313;23;20496;-71
2023/09/02 02:43:34;;;;;;;11.30;10.27;;;;;;;;;;6215957;23;20512;-72
2023/09/02 02:46:01;;;;;;;11.20;10.20;;;;;;;;;;6216210;23;20804;-72
2023/09/02 02:48:29;;;;;;;10.43;9.43;;;;;;;;;;6216124;23;20480;-72
2023/09/02 02:50:57;;;;;;;13.47;9.30;;;;;;;;;;6216279;23;20439;-72
2023/09/02 02:53:25;;;;;;;10.57;9.57;;;;;;;;;;6215635;23;20476;-71
2023/09/02 02:55:52;;;;;;;11.40;10.37;;;;;;;;;;6216063;23;20492;-71
2023/09/02 02:58:19;;;;;;;10.60;9.60;;;;;;;;;;6216215;23;20462;-71
2023/09/02 03:00:47;;;;;;;12.67;10.50;;;;;;;;;;6216138;23;20713;-72
2023/09/02 03:03:14;;;;;;;9.77;8.97;;;;;;;;;;6215722;23;20433;-71
2023/09/02 03:05:41;;;;;;;10.07;9.27;;;;;;;;;;6216046;23;20489;-72
2023/09/02 03:08:08;;;;;;;10.43;9.60;;;;;;;;;;6216009;23;20405;-71
2023/09/02 03:10:37;;;;;;;9.93;8.83;;;;;;;;;;6216082;23;20409;-72
2023/09/02 03:13:04;;;;;;;10.13;9.43;;;;;;;;;;6215941;23;20460;-72
2023/09/02 03:15:31;;;;;;;10.03;9.23;;;;;;;;;;6215974;23;20488;-72
2023/09/02 03:17:58;;;;;;;8.87;8.07;;;;;;;;;;6215927;23;20492;-72
2023/09/02 03:20:24;;;;;;;10.17;9.37;;;;;;;;;;6215937;23;20802;-72
2023/09/02 03:22:51;;;;;;;9.57;8.87;;;;;;;;;;6215713;23;20496;-72
2023/09/02 03:25:18;;;;;;;9.60;8.90;;;;;;;;;;6216221;23;20488;-72
2023/09/02 03:27:47;;;;;;;10.47;9.67;;;;;;;;;;6216038;23;20492;-72
2023/09/02 03:30:14;;;;;;;9.43;8.67;;;;;;;;;;6215879;23;20630;-72
2023/09/02 03:32:41;;;;;;;9.73;8.90;;;;;;;;;;6215433;23;20904;-71
2023/09/02 03:35:08;;;;;;;8.87;8.20;;;;;;;;;;6215940;23;20504;-71
2023/09/02 03:37:35;;;;;;;9.50;8.80;;;;;;;;;;6215526;23;20911;-72
2023/09/02 03:40:03;;;;;;;10.57;9.67;;;;;;;;;;6215905;23;20497;-72
2023/09/02 03:42:30;;;;;;;10.60;9.60;;;;;;;;;;6215840;23;20439;-71
2023/09/02 03:44:58;;;;;;;10.33;9.60;;;;;;;;;;6215753;23;20540;-71
2023/09/02 03:47:25;;;;;;;9.97;9.17;;;;;;;;;;6215765;23;20496;-72
2023/09/02 03:49:52;;;;;;;9.03;8.43;;;;;;;;;;6216177;23;20484;-72
2023/09/02 03:52:19;;;;;;;9.40;8.70;;;;;;;;;;6215614;23;20465;-72
2023/09/02 03:54:46;;;;;;;10.73;9.73;;;;;;;;;;6225747;23;20472;-72
2023/09/02 03:57:13;;;;;;;11.00;9.90;;;;;;;;;;6215821;23;20496;-72
2023/09/02 03:59:40;;;;;;;9.90;9.10;;;;;;;;;;6215752;23;20528;-71
2023/09/02 04:02:08;;;;;;;11.40;10.40;;;;;;;;;;6215836;23;20799;-71
2023/09/02 04:04:35;;;;;;;13.43;9.90;;;;;;;;;;6216530;23;20928;-71
2023/09/02 04:07:02;;;;;;;11.50;10.30;;;;;;;;;;6217700;23;20401;-72
2023/09/02 04:09:29;;;;;;;11.40;10.40;;;;;;;;;;6217695;23;20947;-72
2023/09/02 04:11:56;;;;;;;12.00;11.00;;;;;;;;;;6217970;23;20408;-72
2023/09/02 04:14:23;;;;;;;11.40;10.07;;;;;;;;;;6217552;23;20786;-72
2023/09/02 04:16:50;;;;;;;10.60;9.70;;;;;;;;;;6217619;23;20405;-71
2023/09/02 04:19:18;;;;;;;10.80;9.90;;;;;;;;;;6217611;23;20496;-72
2023/09/02 04:21:45;;;;;;;12.10;11.00;;;;;;;;;;6217439;23;20405;-72
2023/09/02 04:24:12;;;;;;;12.23;11.00;;;;;;;;;;6217344;23;20433;-72
2023/09/02 04:26:39;;;;;;;12.27;11.17;;;;;;;;;;6217518;23;20512;-71
2023/09/02 04:29:06;;;;;;;12.43;11.23;;;;;;;;;;6217511;23;20491;-72
2023/09/02 04:31:33;;;;;;;14.60;13.10;;;;;;;;;;6217455;23;20433;-72
2023/09/02 04:34:00;;;;;;;12.90;11.70;;;;;;;;;;6217379;23;20500;-72
2023/09/02 04:36:29;;;;;;;13.63;12.23;;;;;;;;;;6217402;23;20487;-72
2023/09/02 04:38:56;;;;;;;13.33;12.03;;;;;;;;;;6216875;23;20889;-72
2023/09/02 04:41:23;;;;;;;12.80;11.50;;;;;;;;;;6217314;23;20772;-72
2023/09/02 04:43:50;;;;;;;12.23;11.07;;;;;;;;;;6217121;23;20495;-72
2023/09/02 04:46:17;;;;;;;12.40;11.20;;;;;;;;;;6217331;23;20796;-72
2023/09/02 04:48:46;;;;;;;20.40;12.47;;;;;;;;;;6217287;23;20480;-72
2023/09/02 04:51:13;;;;;;;14.57;12.30;;;;;;;;;;6217103;23;20405;-72
2023/09/02 04:53:41;;;;;;;14.50;12.57;;;;;;;;;;6216906;23;20516;-71
2023/09/02 04:56:08;;;;;;;12.30;11.00;;;;;;;;;;6216786;23;20488;-72
2023/09/02 04:58:35;;;;;;;12.17;10.83;;;;;;;;;;6217499;23;20480;-72
2023/09/02 05:01:09;;;;;;;13.20;11.90;;;;;;;;;;6217165;23;20492;-72
2023/09/02 05:03:36;;;;;;;13.47;12.27;;;;;;;;;;6216891;23;20495;-72
2023/09/02 05:06:05;;;;;;;12.70;11.60;;;;;;;;;;6217149;23;20491;-72
2023/09/02 05:08:34;;;;;;;13.27;12.17;;;;;;;;;;6217235;23;20404;-72
2023/09/02 05:11:03;;;;;;;13.07;11.87;;;;;;;;;;6216924;23;20721;-72
2023/09/02 05:13:30;;;;;;;13.80;12.27;;;;;;;;;;6216768;23;20479;-72
2023/09/02 05:15:57;;;;;;;13.10;11.90;;;;;;;;;;6216734;23;20734;-72
2023/09/02 05:18:24;;;;;;;14.87;13.57;;;;;;;;;;6217000;23;20488;-72
2023/09/02 05:20:51;;;;;;;15.50;13.90;;;;;;;;;;6216696;23;20439;-72
2023/09/02 05:23:17;;;;;;;14.70;13.30;;;;;;;;;;6216869;23;20492;-72
2023/09/02 05:25:44;;;;;;;18.27;13.10;;;;;;;;;;6216881;23;20472;-72
2023/09/02 05:28:12;;;;;;;14.30;12.90;;;;;;;;;;6216963;23;20433;-72
2023/09/02 05:30:39;;;;;;;13.20;11.67;;;;;;;;;;6216825;23;20488;-72
2023/09/02 05:33:06;;;;;;;12.60;11.40;;;;;;;;;;6216733;23;20484;-72
2023/09/02 05:35:33;;;;;;;14.63;13.20;;;;;;;;;;6216486;23;20972;-72
2023/09/02 05:38:02;;;;;;;14.47;12.73;;;;;;;;;;6216839;23;20451;-72
2023/09/02 05:40:29;;;;;;;15.13;13.40;;;;;;;;;;6216310;23;20900;-72
2023/09/02 05:42:56;;;;;;;12.90;11.70;;;;;;;;;;6216728;23;20480;-72
2023/09/02 05:45:24;;;;;;;13.20;12.00;;;;;;;;;;6216608;23;20758;-72
2023/09/02 05:47:51;;;;;;;13.47;12.03;;;;;;;;;;6216596;23;20496;-72
2023/09/02 05:50:18;;;;;;;13.07;11.90;;;;;;;;;;6217053;23;20496;-72
2023/09/02 05:52:45;;;;;;;11.60;10.60;;;;;;;;;;6216264;23;20822;-72
2023/09/02 05:55:12;;;;;;;12.20;11.10;;;;;;;;;;6216662;23;20405;-73
2023/09/02 05:57:39;;;;;;;12.37;10.50;;;;;;;;;;6216677;23;20772;-72
2023/09/02 06:00:06;;;;;;;11.30;10.20;;;;;;;;;;6216656;23;20440;-72
2023/09/02 06:02:35;;;;;;;9.33;8.50;;;;;;;;;;6216394;23;20484;-72
2023/09/02 06:05:02;;;;;;;9.80;9.10;;;;;;;;;;6216300;23;20535;-72
2023/09/02 06:07:29;;;;;;;9.30;8.50;;;;;;;;;;6216566;23;20444;-72
2023/09/02 06:09:56;;;;;;;10.60;9.80;;;;;;;;;;6216431;23;20496;-72
2023/09/02 06:12:23;;;;;;;10.43;9.53;;;;;;;;;;6216458;23;20492;-72
2023/09/02 06:14:50;;;;;;;12.03;11.03;;;;;;;;;;6216621;23;20492;-73
2023/09/02 06:17:17;;;;;;;12.07;10.97;;;;;;;;;;6216448;23;20487;-72
2023/09/02 06:19:45;;;;;;;11.20;10.20;;;;;;;;;;6216047;23;21065;-72
2023/09/02 06:22:12;;;;;;;11.87;10.87;;;;;;;;;;6216250;23;20791;-73
2023/09/02 06:24:39;;;;;;;12.90;11.70;;;;;;;;;;6216192;23;20523;-72
2023/09/02 06:27:06;;;;;;;13.63;12.47;;;;;;;;;;6215845;23;20496;-73
2023/09/02 06:29:33;;;;;;;12.90;11.83;;;;;;;;;;6216281;23;20483;-72
2023/09/02 06:32:00;;;;;;;12.73;11.70;;;;;;;;;;6216286;23;20412;-73
2023/09/02 06:34:28;;;;;;;12.70;11.60;;;;;;;;;;6216441;23;20443;-73
2023/09/02 06:36:57;;;;;;;14.57;13.40;;;;;;;;;;6216136;23;20810;-73
2023/09/02 06:39:24;;;;;;;13.10;12.00;;;;;;;;;;6216485;23;20496;-73
2023/09/02 06:41:50;;;;;;;11.50;10.53;;;;;;;;;;6216250;23;20516;-73
2023/09/02 06:44:17;;;;;;;13.23;11.90;;;;;;;;;;6216013;23;20512;-73
2023/09/02 06:46:44;;;;;;;12.50;11.23;;;;;;;;;;6216182;23;20717;-73
2023/09/02 06:49:11;;;;;;;10.83;9.93;;;;;;;;;;6216171;23;20492;-73
2023/09/02 06:51:38;;;;;;;9.87;8.97;;;;;;;;;;6216203;23;20980;-73
2023/09/02 06:54:06;;;;;;;9.53;8.70;;;;;;;;;;6215361;23;20436;-73
2023/09/02 06:56:33;;;;;;;12.40;11.07;;;;;;;;;;6215857;23;20486;-72
2023/09/02 06:59:00;;;;;;;9.20;8.30;;;;;;;;;;6216074;23;20493;-73
2023/09/02 07:01:27;;;;;;;8.97;8.27;;;;;;;;;;6215984;23;20496;-73
2023/09/02 07:03:55;;;;;;;10.40;9.40;;;;;;;;;;6215662;23;20499;-73
2023/09/02 07:06:23;;;;;;;10.83;9.83;;;;;;;;;;6215777;23;20433;-73
2023/09/02 07:08:50;;;;;;;8.67;8.00;;;;;;;;;;6215964;23;20447;-73
2023/09/02 07:11:18;;;;;;;10.17;9.03;;;;;;;;;;6215930;23;20406;-73
2023/09/02 07:13:45;;;;;;;9.53;8.77;;;;;;;;;;6215773;23;20892;-73
2023/09/02 07:16:14;;;;;;;9.40;8.43;;;;;;;;;;6215606;23;20903;-73
2023/09/02 07:18:41;;;;;;;8.80;7.97;;;;;;;;;;6215809;23;20772;-73
2023/09/02 07:21:08;;;;;;;9.73;8.93;;;;;;;;;;6215930;23;20488;-73
2023/09/02 07:23:35;;;;;;;8.63;7.93;;;;;;;;;;6215839;23;20777;-73
2023/09/02 07:26:04;;;;;;;8.10;7.30;;;;;;;;;;6215669;23;20531;-73
2023/09/02 07:28:33;;;;;;;9.53;8.67;;;;;;;;;;6215577;23;20710;-73
2023/09/02 07:31:01;;;;;;;7.80;7.03;;;;;;;;;;6215744;23;20405;-73
2023/09/02 07:33:28;;;;;;;7.97;7.27;;;;;;;;;;6215705;23;20410;-73
2023/09/02 07:35:57;;;;;;;7.30;6.60;;;;;;;;;;6215839;23;20497;-73
2023/09/02 07:38:23;;;;;;;8.60;7.87;;;;;;;;;;6216684;23;20405;-73
2023/09/02 07:40:50;;;;;;;8.00;6.43;;;;;;;;;;6217973;23;20796;-73
2023/09/02 07:43:17;;;;;;;9.17;6.83;;;;;;;;;;6217735;23;20512;-73
2023/09/02 07:45:45;;;;;;;5.80;5.30;;;;;;;;;;6218046;23;20531;-73
2023/09/02 07:48:12;;;;;;;5.63;4.97;;;;;;;;;;6217698;23;20496;-73
2023/09/02 07:50:39;;;;;;;5.87;5.00;;;;;;;;;;6217909;23;20491;-73
2023/09/02 07:53:06;;;;;;;6.57;5.27;;;;;;;;;;6217405;23;20520;-73
2023/09/02 07:55:33;;;;;;;4.60;4.20;;;;;;;;;;6217775;23;20493;-73
2023/09/02 07:58:01;;;;;;;4.50;4.03;;;;;;;;;;6217676;23;20488;-73
2023/09/02 08:00:28;;;;;;;8.83;4.10;;;;;;;;;;6217506;23;20404;-73
2023/09/02 08:02:56;;;;;;;5.10;3.50;;;;;;;;;;6217304;23;20706;-73
2023/09/02 08:05:23;;;;;;;6.10;4.13;;;;;;;;;;6217516;23;20738;-73
2023/09/02 08:07:49;;;;;;;5.27;4.23;;;;;;;;;;6217904;23;20397;-73
2023/09/02 08:10:16;;;;;;;5.57;3.43;;;;;;;;;;6217636;23;20487;-73
2023/09/02 08:12:45;;;;;;;3.80;3.50;;;;;;;;;;6217460;23;20484;-73
2023/09/02 08:15:12;;;;;;;4.10;3.70;;;;;;;;;;6217073;23;20892;-73
2023/09/02 08:17:39;;;;;;;3.83;3.53;;;;;;;;;;6217924;23;20488;-73
2023/09/02 08:20:08;;;;;;;3.93;3.63;;;;;;;;;;6217541;23;20432;-73
2023/09/02 08:22:36;;;;;;;5.43;4.40;;;;;;;;;;6217141;23;20420;-72
2023/09/02 08:25:03;;;;;;;5.10;4.60;;;;;;;;;;6216877;23;20969;-73
2023/09/02 08:27:30;;;;;;;7.87;5.90;;;;;;;;;;6217468;23;20504;-73
2023/09/02 08:29:57;;;;;;;4.87;4.47;;;;;;;;;;6217274;23;20725;-73
2023/09/02 08:32:24;;;;;;;6.03;4.40;;;;;;;;;;6217315;23;20487;-73
2023/09/02 08:34:51;;;;;;;5.53;5.03;;;;;;;;;;6217212;23;20802;-73
2023/09/02 08:37:19;;;;;;;7.43;4.77;;;;;;;;;;6217257;23;20480;-73
2023/09/02 08:39:47;;;;;;;4.77;4.40;;;;;;;;;;6217197;23;20780;-73
2023/09/02 08:42:17;;;;;;;5.70;4.60;;;;;;;;;;6217563;23;20725;-73
2023/09/02 08:44:46;;;;;;;5.33;4.87;;;;;;;;;;6226960;23;20543;-73
2023/09/02 08:47:13;;;;;;;4.73;4.23;;;;;;;;;;6217074;23;20500;-73
2023/09/02 08:49:40;;;;;;;7.00;4.43;;;;;;;;;;6216787;23;20439;-72
2023/09/02 08:52:07;;;;;;;5.03;4.43;;;;;;;;;;6216923;23;20804;-72
2023/09/02 08:54:36;;;;;;;5.60;4.00;;;;;;;;;;6227009;23;20392;-73
2023/09/02 08:57:03;;;;;;;3.77;3.47;;;;;;;;;;6216744;23;20975;-73
2023/09/02 08:59:30;;;;;;;4.03;3.63;;;;;;;;;;6216994;23;20481;-72
2023/09/02 09:01:57;;;;;;;7.90;6.40;;;;;;;;;;6217015;23;20492;-73
2023/09/02 09:04:25;;;;;;;8.43;4.10;;;;;;;;;;6216823;23;20488;-73
2023/09/02 09:06:52;;;;;;;4.13;3.70;;;;;;;;;;6216897;23;20473;-73
2023/09/02 09:09:20;;;;;;;4.33;3.37;;;;;;;;;;6217042;23;20492;-73
2023/09/02 09:11:48;;;;;;;4.50;4.10;;;;;;;;;;6216819;23;20444;-73
2023/09/02 09:14:19;;;;;;;4.50;3.30;;;;;;;;;;6217036;23;20444;-73
2023/09/02 09:16:47;;;;;;;5.60;4.10;;;;;;;;;;6226903;23;20443;-72
2023/09/02 09:19:14;;;;;;;4.20;3.90;;;;;;;;;;6216927;23;20792;-73
2023/09/02 09:21:41;;;;;;;4.00;3.70;;;;;;;;;;6216921;23;20484;-73
2023/09/02 09:24:12;;;;;;;3.77;3.47;;;;;;;;;;6216696;23;20484;-73
2023/09/02 09:26:39;;;;;;;3.70;3.37;;;;;;;;;;6226693;23;20440;-73
2023/09/02 09:29:12;;;;;;;4.03;3.40;;;;;;;;;;6216710;23;20512;-73
2023/09/02 09:31:39;;;;;;;2.93;2.73;;;;;;;;;;6226795;23;20476;-73
2023/09/02 09:34:06;;;;;;;6.07;3.60;;;;;;;;;;6216606;23;20488;-73
2023/09/02 09:36:33;;;;;;;3.77;3.47;;;;;;;;;;6216808;23;20488;-73
2023/09/02 09:39:01;;;;;;;5.17;3.47;;;;;;;;;;6216830;23;20492;-73
2023/09/02 09:41:28;;;;;;;4.70;3.13;;;;;;;;;;6216656;23;20428;-73
2023/09/02 09:44:05;;;;;;;3.67;3.37;;;;;;;;;;6216557;23;20488;-73
2023/09/02 09:46:33;;;;;;;3.23;3.00;;;;;;;;;;6216625;23;20483;-73
2023/09/02 09:49:01;;;;;;;2.77;2.57;;;;;;;;;;6216643;23;20790;-73
2023/09/02 09:51:29;;;;;;;3.10;2.73;;;;;;;;;;6216927;23;20409;-73
2023/09/02 09:53:56;;;;;;;2.90;2.60;;;;;;;;;;6216054;23;20431;-73
2023/09/02 09:56:23;;;;;;;3.03;2.83;;;;;;;;;;6216562;23;20774;-73
2023/09/02 09:58:50;;;;;;;2.40;2.30;;;;;;;;;;6216590;23;20484;-73
2023/09/02 10:01:23;;;;;;;4.23;2.93;;;;;;;;;;6216492;23;20440;-73
2023/09/02 10:03:54;;;;;;;5.57;2.77;;;;;;;;;;6216343;23;20781;-74
2023/09/02 10:06:21;;;;;;;3.30;2.87;;;;;;;;;;6226285;23;20433;-74
2023/09/02 10:08:52;;;;;;;3.10;2.80;;;;;;;;;;6216466;23;20405;-74
2023/09/02 10:11:21;;;;;;;3.40;3.10;;;;;;;;;;6216314;23;20804;-74
2023/09/02 10:13:48;;;;;;;2.83;2.63;;;;;;;;;;6216068;23;20722;-74
2023/09/02 10:16:16;;;;;;;5.30;3.73;;;;;;;;;;6216675;23;20493;-74
2023/09/02 10:18:43;;;;;;;5.03;3.00;;;;;;;;;;6216123;23;20802;-73
2023/09/02 10:21:13;;;;;;;4.27;3.33;;;;;;;;;;6216280;23;20801;-74
2023/09/02 10:23:44;;;;;;;5.03;3.17;;;;;;;;;;6215941;23;20484;-74
2023/09/02 10:26:16;;;;;;;3.43;2.60;;;;;;;;;;6226115;23;20471;-74
2023/09/02 10:28:43;;;;;;;3.30;3.00;;;;;;;;;;6226115;23;20782;-74
2023/09/02 10:31:12;;;;;;;3.93;3.13;;;;;;;;;;6215989;23;20488;-74
2023/09/02 10:33:41;;;;;;;4.23;3.00;;;;;;;;;;6215876;23;20464;-74
2023/09/02 10:36:08;;;;;;;6.23;3.67;;;;;;;;;;6215157;23;20902;-74
2023/09/02 10:38:38;;;;;;;3.37;3.17;;;;;;;;;;6215272;23;20412;-74
2023/09/02 10:41:12;;;;;;;3.37;3.17;;;;;;;;;;6215928;23;20412;-75
2023/09/02 10:43:39;;;;;;;3.50;2.63;;;;;;;;;;6225884;23;20476;-74
2023/09/02 10:46:06;;;;;;;3.20;2.97;;;;;;;;;;6215960;23;20528;-74
2023/09/02 10:48:34;;;;;;;4.00;3.60;;;;;;;;;;6216129;23;20409;-74
2023/09/02 10:51:01;;;;;;;6.50;4.20;;;;;;;;;;6215960;23;20776;-74
2023/09/02 10:53:53;;;;;;;5.47;3.00;;;;;;;;;;6215580;23;20486;-74
2023/09/02 10:56:27;;;;;;;3.83;3.20;;;;;;;;;;6186949;23;20409;-74
2023/09/02 10:58:53;;;;;;;4.73;2.90;;;;;;;;;;6225877;23;20481;-74
2023/09/02 11:01:20;;;;;;;2.80;2.60;;;;;;;;;;6216132;23;20463;-74
2023/09/02 11:03:48;;;;;;;4.00;3.60;;;;;;;;;;6215931;23;20475;-74
2023/09/02 11:06:16;;;;;;;4.80;3.83;;;;;;;;;;6215849;23;20444;-74
2023/09/02 11:08:44;;;;;;;3.77;3.20;;;;;;;;;;6215360;23;20947;-74
2023/09/02 11:11:12;;;;;;;3.30;3.00;;;;;;;;;;6215707;23;20411;-74
2023/09/02 11:13:54;;;;;;;3.03;2.70;;;;;;;;;;6215514;23;20408;-74
2023/09/02 11:16:22;;;;;;;4.10;3.20;;;;;;;;;;6215981;23;20984;-74
2023/09/02 11:18:49;;;;;;;2.60;2.40;;;;;;;;;;6215867;23;20488;-74
2023/09/02 11:21:31;;;;;;;2.63;2.37;;;;;;;;;;6215913;23;20401;-74
2023/09/02 11:24:13;;;;;;;4.90;3.37;;;;;;;;;;6214647;23;20940;-74
2023/09/02 11:26:50;;;;;;;4.20;2.80;;;;;;;;;;6225610;23;20740;-74
2023/09/02 11:29:24;;;;;;;5.10;4.60;;;;;;;;;;6225747;23;20400;-74
2023/09/02 11:31:59;;;;;;;4.13;2.60;;;;;;;;;;6215758;23;20492;-74
2023/09/02 11:34:26;;;;;;;3.20;2.90;;;;;;;;;;6215570;23;20401;-74
2023/09/02 11:36:54;;;;;;;8.07;2.97;;;;;;;;;;6215766;23;20408;-74
2023/09/02 11:39:25;;;;;;;4.03;2.37;;;;;;;;;;6215431;23;20888;-74
2023/09/02 11:42:05;;;;;;;2.90;2.37;;;;;;;;;;6225715;23;20432;-74
2023/09/02 11:44:32;;;;;;;2.73;2.53;;;;;;;;;;6225704;23;20476;-74
2023/09/02 11:47:00;;;;;;;5.03;3.10;;;;;;;;;;6215626;23;20525;-74
2023/09/02 11:49:28;;;;;;;2.60;2.40;;;;;;;;;;6215677;23;20493;-74
2023/09/02 11:51:55;;;;;;;3.20;2.47;;;;;;;;;;6215539;23;20413;-74
2023/09/02 11:54:22;;;;;;;2.90;2.70;;;;;;;;;;6214796;23;20512;-74
2023/09/02 11:56:57;;;;;;;3.73;3.07;;;;;;;;;;6215654;23;20492;-74
2023/09/02 11:59:24;;;;;;;3.10;2.80;;;;;;;;;;6225588;23;20393;-74
2023/09/02 12:02:06;;;;;;;3.10;2.87;;;;;;;;;;6215796;23;20433;-74
2023/09/02 12:04:37;;;;;;;3.10;2.80;;;;;;;;;;6225162;23;20468;-74
2023/09/02 12:07:04;;;;;;;3.33;2.20;;;;;;;;;;6225446;23;20432;-73
2023/09/02 12:09:31;;;;;;;3.67;2.33;;;;;;;;;;6215724;23;20444;-74
2023/09/02 12:11:58;;;;;;;2.90;2.50;;;;;;;;;;6215649;23;20488;-74
2023/09/02 12:14:25;;;;;;;5.00;3.60;;;;;;;;;;6215100;23;20889;-74
2023/09/02 12:16:52;;;;;;;3.20;2.80;;;;;;;;;;6215732;23;20491;-74
2023/09/02 12:19:19;;;;;;;3.10;2.70;;;;;;;;;;6215290;23;20497;-74
2023/09/02 12:21:47;;;;;;;4.17;2.90;;;;;;;;;;6215593;23;20951;-74
2023/09/02 12:24:14;;;;;;;4.70;3.10;;;;;;;;;;6215264;23;20500;-74
2023/09/02 12:26:46;;;;;;;3.50;2.83;;;;;;;;;;6217262;23;20516;-74
2023/09/02 12:29:15;;;;;;;3.40;3.10;;;;;;;;;;6227284;23;20401;-74
2023/09/02 12:31:43;;;;;;;2.70;2.33;;;;;;;;;;6217218;23;20439;-74
2023/09/02 12:34:10;;;;;;;3.33;3.10;;;;;;;;;;6217121;23;20405;-74
2023/09/02 12:36:37;;;;;;;4.07;3.30;;;;;;;;;;6217314;23;20795;-73
2023/09/02 12:39:06;;;;;;;3.37;2.27;;;;;;;;;;6217390;23;20488;-74
2023/09/02 12:41:39;;;;;;;2.93;2.50;;;;;;;;;;6217278;23;20488;-74
2023/09/02 12:44:12;;;;;;;1.60;1.50;;;;;;;;;;6216940;23;20768;-74
2023/09/02 12:46:39;;;;;;;2.60;2.40;;;;;;;;;;6217097;23;20524;-74
2023/09/02 12:49:07;;;;;;;2.00;1.80;;;;;;;;;;6217293;23;20492;-74
2023/09/02 12:51:38;;;;;;;2.27;2.07;;;;;;;;;;6217114;23;20433;-74
2023/09/02 12:54:10;;;;;;;8.53;7.67;;;;;;;;;;6217701;23;20520;-74
2023/09/02 12:56:37;;;;;;;3.10;2.90;;;;;;;;;;6226672;23;20876;-74
2023/09/02 12:59:04;;;;;;;2.07;1.87;;;;;;;;;;6217082;23;20409;-73
2023/09/02 13:01:31;;;;;;;3.43;2.90;;;;;;;;;;6217145;23;20493;-73
2023/09/02 13:03:59;;;;;;;2.40;2.20;;;;;;;;;;6217042;23;20513;-74
2023/09/02 13:06:26;;;;;;;3.47;1.97;;;;;;;;;;6216760;23;20533;-74
2023/09/02 13:08:53;;;;;;;4.60;2.80;;;;;;;;;;6216987;23;20695;-73
2023/09/02 13:11:22;;;;;;;3.13;2.23;;;;;;;;;;6216755;23;20480;-74
2023/09/02 13:13:49;;;;;;;2.70;2.53;;;;;;;;;;6216678;23;20951;-73
2023/09/02 13:16:16;;;;;;;3.40;2.47;;;;;;;;;;6216766;23;20497;-73
2023/09/02 13:18:44;;;;;;;2.77;2.40;;;;;;;;;;6216997;23;20885;-74
2023/09/02 13:21:12;;;;;;;2.90;2.70;;;;;;;;;;6216639;23;20960;-74
2023/09/02 13:23:39;;;;;;;2.20;2.10;;;;;;;;;;6216853;23;20488;-73
2023/09/02 13:26:09;;;;;;;2.70;2.00;;;;;;;;;;6216648;23;20488;-74
2023/09/02 13:28:38;;;;;;;2.77;2.10;;;;;;;;;;6226537;23;20487;-73
2023/09/02 13:31:05;;;;;;;2.50;2.30;;;;;;;;;;6216756;23;20492;-73
2023/09/02 13:33:33;;;;;;;3.10;2.40;;;;;;;;;;6216561;23;20479;-73
2023/09/02 13:36:00;;;;;;;3.87;2.70;;;;;;;;;;6216366;23;20455;-74
2023/09/02 13:38:28;;;;;;;2.17;1.83;;;;;;;;;;6216662;23;20492;-74
2023/09/02 13:40:55;;;;;;;2.03;1.83;;;;;;;;;;6216611;23;20413;-73
2023/09/02 13:43:24;;;;;;;4.00;2.03;;;;;;;;;;6216629;23;20405;-73
2023/09/02 13:45:52;;;;;;;3.27;2.80;;;;;;;;;;6216177;23;20968;-73
2023/09/02 13:48:19;;;;;;;3.10;2.80;;;;;;;;;;6225828;23;20443;-73
2023/09/02 13:50:46;;;;;;;4.47;2.60;;;;;;;;;;6216701;23;20496;-73
2023/09/02 13:53:16;;;;;;;3.13;2.30;;;;;;;;;;6216129;23;20429;-73
2023/09/02 13:55:44;;;;;;;3.40;2.50;;;;;;;;;;6216456;23;20495;-73
2023/09/02 13:58:14;;;;;;;2.47;2.27;;;;;;;;;;6216439;23;20389;-73
2023/09/02 14:00:42;;;;;;;2.77;2.57;;;;;;;;;;6216356;23;20484;-74
2023/09/02 14:03:13;;;;;;;4.50;2.70;;;;;;;;;;6216353;23;20401;-74
2023/09/02 14:05:40;;;;;;;2.37;2.17;;;;;;;;;;6226452;23;20465;-74
2023/09/02 14:08:07;;;;;;;3.80;2.30;;;;;;;;;;6216310;23;20535;-73
2023/09/02 14:10:34;;;;;;;3.57;2.50;;;;;;;;;;6216356;23;20476;-73
2023/09/02 14:13:04;;;;;;;4.20;2.40;;;;;;;;;;6215941;23;20432;-73
2023/09/02 14:15:31;;;;;;;3.13;2.90;;;;;;;;;;6226354;23;20425;-74
2023/09/02 14:17:58;;;;;;;2.77;2.57;;;;;;;;;;6216355;23;20428;-73
2023/09/02 14:20:26;;;;;;;2.90;2.70;;;;;;;;;;6216225;23;20428;-74
2023/09/02 14:22:53;;;;;;;2.90;2.43;;;;;;;;;;6216201;23;20496;-74
2023/09/02 14:25:20;;;;;;;4.00;3.53;;;;;;;;;;6216074;23;20952;-74
2023/09/02 14:27:47;;;;;;;3.13;2.90;;;;;;;;;;6216258;23;20515;-74
2023/09/02 14:30:14;;;;;;;2.73;2.63;;;;;;;;;;6216377;23;20440;-74
2023/09/02 14:32:41;;;;;;;3.87;2.87;;;;;;;;;;6216204;23;20440;-74
2023/09/02 14:35:08;;;;;;;2.80;2.60;;;;;;;;;;6216182;23;20497;-74
2023/09/02 14:37:37;;;;;;;2.50;2.30;;;;;;;;;;6215781;23;20901;-74